1T8 weather

Bulverde Airpark
San Antonio, Texas, United States

Public forecast

Using degrees Fahrenheit for public forecast. Weather courtesy of forecast.io.

METAR (pilot weather report)

Closest report is San Antonio International Airport, 12.4 nm (22.9 km) S. Retrieved 2019/07/20 08:14 UTC (42 minutes ago):

KSAT 200814Z 16011KT 10SM BKN012 BKN250 26/22 A2998

TAF (pilot weather forecast)

Closest forecast is San Antonio International Airport, 12.4 nm (22.9 km) S. Retrieved 2019/07/20 06:28 UTC (2 hours ago):

TAF KSAT 200526Z 2006/2112 15013KT P6SM FEW250 FM200900 16008KT P6SM SCT009 BKN015 FM201400 16008KT P6SM BKN025 FM201500 15013KT P6SM SCT040 SCT250